sensor_id;sensor_type;location;lat;lon;timestamp;P1;durP1;ratioP1;P2;durP2;ratioP2
23163;SDS011;31429;42.674;23.350;2023-06-05T00:00:19;26.80;;;22.73;;
23163;SDS011;31429;42.674;23.350;2023-06-05T00:01:20;36.17;;;26.67;;
23163;SDS011;31429;42.674;23.350;2023-06-05T00:02:21;32.83;;;28.57;;
23163;SDS011;31429;42.674;23.350;2023-06-05T00:03:22;36.60;;;32.67;;
23163;SDS011;31429;42.674;23.350;2023-06-05T00:04:24;35.47;;;29.07;;
23163;SDS011;31429;42.674;23.350;2023-06-05T00:05:25;31.73;;;28.30;;
23163;SDS011;31429;42.674;23.350;2023-06-05T00:06:26;33.53;;;29.63;;
23163;SDS011;31429;42.674;23.350;2023-06-05T00:07:27;41.23;;;36.73;;
23163;SDS011;31429;42.674;23.350;2023-06-05T00:08:30;39.17;;;34.97;;
23163;SDS011;31429;42.674;23.350;2023-06-05T00:09:31;43.13;;;35.47;;
23163;SDS011;31429;42.674;23.350;2023-06-05T00:10:31;34.93;;;30.47;;
23163;SDS011;31429;42.674;23.350;2023-06-05T00:11:32;33.03;;;27.77;;
23163;SDS011;31429;42.674;23.350;2023-06-05T00:12:34;34.80;;;28.07;;
23163;SDS011;31429;42.674;23.350;2023-06-05T00:13:35;30.40;;;27.00;;
23163;SDS011;31429;42.674;23.350;2023-06-05T00:14:36;31.77;;;28.23;;
23163;SDS011;31429;42.674;23.350;2023-06-05T00:15:37;29.70;;;26.53;;
23163;SDS011;31429;42.674;23.350;2023-06-05T00:16:37;32.07;;;28.13;;
23163;SDS011;31429;42.674;23.350;2023-06-05T00:17:38;30.43;;;27.23;;
23163;SDS011;31429;42.674;23.350;2023-06-05T00:18:39;30.93;;;27.33;;
23163;SDS011;31429;42.674;23.350;2023-06-05T00:19:39;31.30;;;27.57;;
23163;SDS011;31429;42.674;23.350;2023-06-05T00:20:40;31.33;;;27.67;;
23163;SDS011;31429;42.674;23.350;2023-06-05T00:21:41;32.30;;;28.83;;
23163;SDS011;31429;42.674;23.350;2023-06-05T00:22:41;34.07;;;28.10;;
23163;SDS011;31429;42.674;23.350;2023-06-05T00:23:44;29.20;;;26.07;;
23163;SDS011;31429;42.674;23.350;2023-06-05T00:24:45;36.87;;;32.17;;
23163;SDS011;31429;42.674;23.350;2023-06-05T00:25:45;34.40;;;30.80;;
23163;SDS011;31429;42.674;23.350;2023-06-05T00:26:46;33.30;;;29.70;;
23163;SDS011;31429;42.674;23.350;2023-06-05T00:27:48;30.17;;;27.00;;
23163;SDS011;31429;42.674;23.350;2023-06-05T00:28:49;27.73;;;24.50;;
23163;SDS011;31429;42.674;23.350;2023-06-05T00:29:50;27.93;;;24.93;;
23163;SDS011;31429;42.674;23.350;2023-06-05T00:30:50;30.47;;;27.27;;
23163;SDS011;31429;42.674;23.350;2023-06-05T00:31:51;30.13;;;26.87;;
23163;SDS011;31429;42.674;23.350;2023-06-05T00:32:53;31.13;;;27.73;;
23163;SDS011;31429;42.674;23.350;2023-06-05T00:33:54;31.53;;;28.20;;
23163;SDS011;31429;42.674;23.350;2023-06-05T00:34:55;30.63;;;27.13;;
23163;SDS011;31429;42.674;23.350;2023-06-05T00:35:55;31.07;;;27.90;;
23163;SDS011;31429;42.674;23.350;2023-06-05T00:36:56;29.63;;;26.47;;
23163;SDS011;31429;42.674;23.350;2023-06-05T00:37:58;27.40;;;24.63;;
23163;SDS011;31429;42.674;23.350;2023-06-05T00:38:58;26.90;;;24.00;;
23163;SDS011;31429;42.674;23.350;2023-06-05T00:39:59;27.47;;;23.90;;
23163;SDS011;31429;42.674;23.350;2023-06-05T00:41:01;25.90;;;23.27;;
23163;SDS011;31429;42.674;23.350;2023-06-05T00:42:01;29.40;;;24.63;;
23163;SDS011;31429;42.674;23.350;2023-06-05T00:43:03;28.70;;;25.60;;
23163;SDS011;31429;42.674;23.350;2023-06-05T00:44:06;26.80;;;24.00;;
23163;SDS011;31429;42.674;23.350;2023-06-05T00:45:07;27.40;;;24.70;;
23163;SDS011;31429;42.674;23.350;2023-06-05T00:46:07;30.17;;;24.43;;
23163;SDS011;31429;42.674;23.350;2023-06-05T00:47:09;27.00;;;23.57;;
23163;SDS011;31429;42.674;23.350;2023-06-05T00:48:10;27.20;;;24.17;;
23163;SDS011;31429;42.674;23.350;2023-06-05T00:49:11;28.27;;;25.37;;
23163;SDS011;31429;42.674;23.350;2023-06-05T00:50:12;31.13;;;27.10;;
23163;SDS011;31429;42.674;23.350;2023-06-05T00:51:15;28.60;;;25.57;;
23163;SDS011;31429;42.674;23.350;2023-06-05T00:52:16;27.63;;;24.90;;
23163;SDS011;31429;42.674;23.350;2023-06-05T00:53:17;28.53;;;24.13;;
23163;SDS011;31429;42.674;23.350;2023-06-05T00:54:18;28.77;;;25.70;;
23163;SDS011;31429;42.674;23.350;2023-06-05T00:55:21;26.50;;;23.90;;
23163;SDS011;31429;42.674;23.350;2023-06-05T00:56:22;25.40;;;22.90;;
23163;SDS011;31429;42.674;23.350;2023-06-05T00:57:22;24.40;;;21.30;;
23163;SDS011;31429;42.674;23.350;2023-06-05T00:58:26;23.43;;;21.13;;
23163;SDS011;31429;42.674;23.350;2023-06-05T00:59:28;24.20;;;21.77;;
23163;SDS011;31429;42.674;23.350;2023-06-05T01:00:32;26.57;;;21.13;;
23163;SDS011;31429;42.674;23.350;2023-06-05T01:01:34;25.97;;;21.37;;
23163;SDS011;31429;42.674;23.350;2023-06-05T01:02:36;24.10;;;21.13;;
23163;SDS011;31429;42.674;23.350;2023-06-05T01:03:37;23.50;;;21.20;;
23163;SDS011;31429;42.674;23.350;2023-06-05T01:04:39;23.87;;;20.80;;
23163;SDS011;31429;42.674;23.350;2023-06-05T01:05:43;24.13;;;21.67;;
23163;SDS011;31429;42.674;23.350;2023-06-05T01:06:44;25.80;;;23.03;;
23163;SDS011;31429;42.674;23.350;2023-06-05T01:07:45;27.97;;;22.03;;
23163;SDS011;31429;42.674;23.350;2023-06-05T01:08:48;25.07;;;22.47;;
23163;SDS011;31429;42.674;23.350;2023-06-05T01:09:50;23.33;;;21.07;;
23163;SDS011;31429;42.674;23.350;2023-06-05T01:10:52;25.37;;;20.53;;
23163;SDS011;31429;42.674;23.350;2023-06-05T01:11:56;23.60;;;21.13;;
23163;SDS011;31429;42.674;23.350;2023-06-05T01:13:04;23.03;;;20.60;;
23163;SDS011;31429;42.674;23.350;2023-06-05T01:14:13;23.00;;;20.70;;
23163;SDS011;31429;42.674;23.350;2023-06-05T01:15:20;25.37;;;22.67;;
23163;SDS011;31429;42.674;23.350;2023-06-05T01:16:28;24.93;;;22.33;;
23163;SDS011;31429;42.674;23.350;2023-06-05T01:17:32;25.50;;;22.70;;
23163;SDS011;31429;42.674;23.350;2023-06-05T01:18:34;24.80;;;22.20;;
23163;SDS011;31429;42.674;23.350;2023-06-05T01:19:35;23.50;;;21.13;;
23163;SDS011;31429;42.674;23.350;2023-06-05T01:20:37;24.67;;;22.30;;
23163;SDS011;31429;42.674;23.350;2023-06-05T01:21:39;23.00;;;20.80;;
23163;SDS011;31429;42.674;23.350;2023-06-05T01:22:39;24.17;;;21.77;;
23163;SDS011;31429;42.674;23.350;2023-06-05T01:23:42;23.83;;;21.47;;
23163;SDS011;31429;42.674;23.350;2023-06-05T01:24:44;22.60;;;20.27;;
23163;SDS011;31429;42.674;23.350;2023-06-05T01:25:45;21.57;;;19.50;;
23163;SDS011;31429;42.674;23.350;2023-06-05T01:26:48;22.33;;;19.97;;
23163;SDS011;31429;42.674;23.350;2023-06-05T01:28:05;21.73;;;19.47;;
23163;SDS011;31429;42.674;23.350;2023-06-05T01:29:09;23.57;;;19.70;;
23163;SDS011;31429;42.674;23.350;2023-06-05T01:30:12;21.80;;;18.93;;
23163;SDS011;31429;42.674;23.350;2023-06-05T01:31:20;21.77;;;19.77;;
23163;SDS011;31429;42.674;23.350;2023-06-05T01:32:23;22.87;;;20.00;;
23163;SDS011;31429;42.674;23.350;2023-06-05T01:33:30;25.50;;;21.37;;
23163;SDS011;31429;42.674;23.350;2023-06-05T01:34:42;26.00;;;22.90;;
23163;SDS011;31429;42.674;23.350;2023-06-05T01:35:44;25.93;;;23.43;;
23163;SDS011;31429;42.674;23.350;2023-06-05T01:36:52;26.13;;;23.10;;
23163;SDS011;31429;42.674;23.350;2023-06-05T01:37:55;26.53;;;23.80;;
23163;SDS011;31429;42.674;23.350;2023-06-05T01:39:00;25.47;;;21.80;;
23163;SDS011;31429;42.674;23.350;2023-06-05T01:40:01;24.63;;;22.03;;
23163;SDS011;31429;42.674;23.350;2023-06-05T01:41:06;22.80;;;20.60;;
23163;SDS011;31429;42.674;23.350;2023-06-05T01:42:09;21.83;;;19.63;;
23163;SDS011;31429;42.674;23.350;2023-06-05T01:43:11;22.87;;;20.47;;
23163;SDS011;31429;42.674;23.350;2023-06-05T01:44:12;22.20;;;20.00;;
23163;SDS011;31429;42.674;23.350;2023-06-05T01:45:16;22.73;;;20.33;;
23163;SDS011;31429;42.674;23.350;2023-06-05T01:46:18;21.77;;;19.57;;
23163;SDS011;31429;42.674;23.350;2023-06-05T01:47:20;22.80;;;20.40;;
23163;SDS011;31429;42.674;23.350;2023-06-05T01:48:22;22.97;;;20.57;;
23163;SDS011;31429;42.674;23.350;2023-06-05T01:49:23;25.53;;;22.83;;
23163;SDS011;31429;42.674;23.350;2023-06-05T01:50:25;22.93;;;20.53;;
23163;SDS011;31429;42.674;23.350;2023-06-05T01:51:26;21.63;;;19.43;;
23163;SDS011;31429;42.674;23.350;2023-06-05T01:52:27;21.97;;;19.87;;
23163;SDS011;31429;42.674;23.350;2023-06-05T01:53:28;23.40;;;21.03;;
23163;SDS011;31429;42.674;23.350;2023-06-05T01:54:31;23.23;;;20.83;;
23163;SDS011;31429;42.674;23.350;2023-06-05T01:55:34;23.37;;;19.37;;
23163;SDS011;31429;42.674;23.350;2023-06-05T01:56:39;21.90;;;19.60;;
23163;SDS011;31429;42.674;23.350;2023-06-05T01:57:40;22.63;;;20.27;;
23163;SDS011;31429;42.674;23.350;2023-06-05T01:58:41;21.43;;;19.10;;
23163;SDS011;31429;42.674;23.350;2023-06-05T01:59:41;24.27;;;20.03;;
23163;SDS011;31429;42.674;23.350;2023-06-05T02:00:43;21.90;;;19.73;;
23163;SDS011;31429;42.674;23.350;2023-06-05T02:01:45;22.53;;;20.20;;
23163;SDS011;31429;42.674;23.350;2023-06-05T02:02:46;23.33;;;20.93;;
23163;SDS011;31429;42.674;23.350;2023-06-05T02:03:49;24.60;;;22.30;;
23163;SDS011;31429;42.674;23.350;2023-06-05T02:04:50;23.67;;;21.27;;
23163;SDS011;31429;42.674;23.350;2023-06-05T02:05:54;23.77;;;21.33;;
23163;SDS011;31429;42.674;23.350;2023-06-05T02:06:54;21.00;;;18.77;;
23163;SDS011;31429;42.674;23.350;2023-06-05T02:07:55;21.23;;;19.03;;
23163;SDS011;31429;42.674;23.350;2023-06-05T02:08:58;22.70;;;20.37;;
23163;SDS011;31429;42.674;23.350;2023-06-05T02:10:00;23.27;;;20.37;;
23163;SDS011;31429;42.674;23.350;2023-06-05T02:11:02;22.60;;;20.40;;
23163;SDS011;31429;42.674;23.350;2023-06-05T02:12:08;23.07;;;20.63;;
23163;SDS011;31429;42.674;23.350;2023-06-05T02:13:08;22.43;;;19.70;;
23163;SDS011;31429;42.674;23.350;2023-06-05T02:14:09;21.47;;;18.33;;
23163;SDS011;31429;42.674;23.350;2023-06-05T02:15:12;20.73;;;18.53;;
23163;SDS011;31429;42.674;23.350;2023-06-05T02:16:15;21.97;;;19.67;;
23163;SDS011;31429;42.674;23.350;2023-06-05T02:17:17;20.63;;;18.53;;
23163;SDS011;31429;42.674;23.350;2023-06-05T02:18:17;22.63;;;20.30;;
23163;SDS011;31429;42.674;23.350;2023-06-05T02:19:18;23.23;;;20.77;;
23163;SDS011;31429;42.674;23.350;2023-06-05T02:20:19;21.93;;;19.73;;
23163;SDS011;31429;42.674;23.350;2023-06-05T02:21:21;22.50;;;19.97;;
23163;SDS011;31429;42.674;23.350;2023-06-05T02:22:21;21.67;;;19.50;;
23163;SDS011;31429;42.674;23.350;2023-06-05T02:23:23;21.73;;;19.53;;
23163;SDS011;31429;42.674;23.350;2023-06-05T02:24:24;22.67;;;20.27;;
23163;SDS011;31429;42.674;23.350;2023-06-05T02:25:27;21.57;;;19.27;;
23163;SDS011;31429;42.674;23.350;2023-06-05T02:26:28;21.10;;;19.03;;
23163;SDS011;31429;42.674;23.350;2023-06-05T02:27:29;23.83;;;18.93;;
23163;SDS011;31429;42.674;23.350;2023-06-05T02:28:30;22.03;;;20.03;;
23163;SDS011;31429;42.674;23.350;2023-06-05T02:29:31;23.30;;;20.90;;
23163;SDS011;31429;42.674;23.350;2023-06-05T02:30:32;22.37;;;20.03;;
23163;SDS011;31429;42.674;23.350;2023-06-05T02:31:33;21.50;;;19.23;;
23163;SDS011;31429;42.674;23.350;2023-06-05T02:32:35;22.33;;;19.70;;
23163;SDS011;31429;42.674;23.350;2023-06-05T02:33:36;21.17;;;18.97;;
23163;SDS011;31429;42.674;23.350;2023-06-05T02:34:36;22.43;;;20.07;;
23163;SDS011;31429;42.674;23.350;2023-06-05T02:35:37;21.93;;;19.73;;
23163;SDS011;31429;42.674;23.350;2023-06-05T02:36:40;22.23;;;20.03;;
23163;SDS011;31429;42.674;23.350;2023-06-05T02:37:42;25.13;;;21.40;;
23163;SDS011;31429;42.674;23.350;2023-06-05T02:38:43;33.10;;;23.03;;
23163;SDS011;31429;42.674;23.350;2023-06-05T02:39:44;23.67;;;21.40;;
23163;SDS011;31429;42.674;23.350;2023-06-05T02:40:46;26.67;;;23.63;;
23163;SDS011;31429;42.674;23.350;2023-06-05T02:41:47;25.67;;;22.93;;
23163;SDS011;31429;42.674;23.350;2023-06-05T02:42:48;23.20;;;20.87;;
23163;SDS011;31429;42.674;23.350;2023-06-05T02:43:48;26.23;;;21.43;;
23163;SDS011;31429;42.674;23.350;2023-06-05T02:44:49;23.37;;;20.93;;
23163;SDS011;31429;42.674;23.350;2023-06-05T02:45:50;23.47;;;21.10;;
23163;SDS011;31429;42.674;23.350;2023-06-05T02:46:50;26.17;;;23.43;;
23163;SDS011;31429;42.674;23.350;2023-06-05T02:47:51;28.17;;;22.60;;
23163;SDS011;31429;42.674;23.350;2023-06-05T02:48:52;24.47;;;22.17;;
23163;SDS011;31429;42.674;23.350;2023-06-05T02:49:52;26.37;;;23.57;;
23163;SDS011;31429;42.674;23.350;2023-06-05T02:50:53;24.23;;;21.73;;
23163;SDS011;31429;42.674;23.350;2023-06-05T02:51:53;24.00;;;21.50;;
23163;SDS011;31429;42.674;23.350;2023-06-05T02:52:54;24.67;;;22.17;;
23163;SDS011;31429;42.674;23.350;2023-06-05T02:53:55;24.20;;;20.33;;
23163;SDS011;31429;42.674;23.350;2023-06-05T02:54:55;23.90;;;21.50;;
23163;SDS011;31429;42.674;23.350;2023-06-05T02:55:57;22.53;;;19.77;;
23163;SDS011;31429;42.674;23.350;2023-06-05T02:57:01;22.13;;;19.87;;
23163;SDS011;31429;42.674;23.350;2023-06-05T02:58:02;23.80;;;21.37;;
23163;SDS011;31429;42.674;23.350;2023-06-05T02:59:02;22.07;;;19.70;;
23163;SDS011;31429;42.674;23.350;2023-06-05T03:00:04;23.17;;;20.67;;
23163;SDS011;31429;42.674;23.350;2023-06-05T03:01:08;25.13;;;22.13;;
23163;SDS011;31429;42.674;23.350;2023-06-05T03:02:08;23.80;;;21.47;;
23163;SDS011;31429;42.674;23.350;2023-06-05T03:03:10;25.07;;;21.47;;
23163;SDS011;31429;42.674;23.350;2023-06-05T03:04:11;24.63;;;21.20;;
23163;SDS011;31429;42.674;23.350;2023-06-05T03:05:13;24.07;;;21.53;;
23163;SDS011;31429;42.674;23.350;2023-06-05T03:06:14;24.03;;;21.67;;
23163;SDS011;31429;42.674;23.350;2023-06-05T03:07:17;20.83;;;18.73;;
23163;SDS011;31429;42.674;23.350;2023-06-05T03:08:18;21.10;;;18.90;;
23163;SDS011;31429;42.674;23.350;2023-06-05T03:09:18;25.40;;;19.97;;
23163;SDS011;31429;42.674;23.350;2023-06-05T03:10:19;23.10;;;20.23;;
23163;SDS011;31429;42.674;23.350;2023-06-05T03:11:22;22.50;;;20.03;;
23163;SDS011;31429;42.674;23.350;2023-06-05T03:12:25;22.30;;;20.03;;
23163;SDS011;31429;42.674;23.350;2023-06-05T03:13:25;24.07;;;21.47;;
23163;SDS011;31429;42.674;23.350;2023-06-05T03:14:29;23.37;;;21.00;;
23163;SDS011;31429;42.674;23.350;2023-06-05T03:15:33;23.93;;;21.33;;
23163;SDS011;31429;42.674;23.350;2023-06-05T03:16:34;23.53;;;21.07;;
23163;SDS011;31429;42.674;23.350;2023-06-05T03:17:41;26.97;;;22.30;;
23163;SDS011;31429;42.674;23.350;2023-06-05T03:18:42;24.53;;;22.00;;
23163;SDS011;31429;42.674;23.350;2023-06-05T03:19:43;25.97;;;23.13;;
23163;SDS011;31429;42.674;23.350;2023-06-05T03:20:43;25.20;;;22.50;;
23163;SDS011;31429;42.674;23.350;2023-06-05T03:21:44;27.27;;;22.23;;
23163;SDS011;31429;42.674;23.350;2023-06-05T03:22:45;25.80;;;22.10;;
23163;SDS011;31429;42.674;23.350;2023-06-05T03:23:46;22.90;;;20.40;;
23163;SDS011;31429;42.674;23.350;2023-06-05T03:24:47;21.60;;;19.40;;
23163;SDS011;31429;42.674;23.350;2023-06-05T03:25:47;22.93;;;20.63;;
23163;SDS011;31429;42.674;23.350;2023-06-05T03:26:49;23.90;;;21.37;;
23163;SDS011;31429;42.674;23.350;2023-06-05T03:27:50;24.13;;;21.70;;
23163;SDS011;31429;42.674;23.350;2023-06-05T03:28:51;24.43;;;21.80;;
23163;SDS011;31429;42.674;23.350;2023-06-05T03:29:51;28.27;;;23.07;;
23163;SDS011;31429;42.674;23.350;2023-06-05T03:30:52;24.53;;;21.93;;
23163;SDS011;31429;42.674;23.350;2023-06-05T03:31:53;26.77;;;23.33;;
23163;SDS011;31429;42.674;23.350;2023-06-05T03:32:53;24.77;;;21.90;;
23163;SDS011;31429;42.674;23.350;2023-06-05T03:33:54;27.97;;;22.37;;
23163;SDS011;31429;42.674;23.350;2023-06-05T03:34:55;27.77;;;21.87;;
23163;SDS011;31429;42.674;23.350;2023-06-05T03:35:55;24.70;;;21.87;;
23163;SDS011;31429;42.674;23.350;2023-06-05T03:36:56;27.53;;;22.83;;
23163;SDS011;31429;42.674;23.350;2023-06-05T03:37:58;26.37;;;23.13;;
23163;SDS011;31429;42.674;23.350;2023-06-05T03:38:59;28.47;;;22.90;;
23163;SDS011;31429;42.674;23.350;2023-06-05T03:40:00;26.03;;;22.67;;
23163;SDS011;31429;42.674;23.350;2023-06-05T03:41:01;27.73;;;23.17;;
23163;SDS011;31429;42.674;23.350;2023-06-05T03:42:03;25.87;;;21.90;;
23163;SDS011;31429;42.674;23.350;2023-06-05T03:43:07;27.93;;;22.90;;
23163;SDS011;31429;42.674;23.350;2023-06-05T03:44:07;25.37;;;22.70;;
23163;SDS011;31429;42.674;23.350;2023-06-05T03:45:09;27.80;;;21.87;;
23163;SDS011;31429;42.674;23.350;2023-06-05T03:46:10;25.10;;;22.60;;
23163;SDS011;31429;42.674;23.350;2023-06-05T03:47:15;25.40;;;21.63;;
23163;SDS011;31429;42.674;23.350;2023-06-05T03:48:16;24.17;;;20.97;;
23163;SDS011;31429;42.674;23.350;2023-06-05T03:49:19;23.30;;;20.83;;
23163;SDS011;31429;42.674;23.350;2023-06-05T03:50:20;23.40;;;21.10;;
23163;SDS011;31429;42.674;23.350;2023-06-05T03:51:21;24.70;;;21.63;;
23163;SDS011;31429;42.674;23.350;2023-06-05T03:52:23;24.20;;;21.73;;
23163;SDS011;31429;42.674;23.350;2023-06-05T03:53:24;25.37;;;22.50;;
23163;SDS011;31429;42.674;23.350;2023-06-05T03:54:29;27.83;;;23.70;;
23163;SDS011;31429;42.674;23.350;2023-06-05T03:55:32;24.70;;;22.30;;
23163;SDS011;31429;42.674;23.350;2023-06-05T03:56:41;25.23;;;21.87;;
23163;SDS011;31429;42.674;23.350;2023-06-05T03:57:44;28.83;;;23.93;;
23163;SDS011;31429;42.674;23.350;2023-06-05T03:58:45;64.80;;;57.73;;
23163;SDS011;31429;42.674;23.350;2023-06-05T03:59:48;88.87;;;74.00;;
23163;SDS011;31429;42.674;23.350;2023-06-05T04:00:49;65.17;;;55.63;;
23163;SDS011;31429;42.674;23.350;2023-06-05T04:01:49;37.30;;;30.67;;
23163;SDS011;31429;42.674;23.350;2023-06-05T04:02:50;26.50;;;23.10;;
23163;SDS011;31429;42.674;23.350;2023-06-05T04:03:51;67.80;;;58.43;;
23163;SDS011;31429;42.674;23.350;2023-06-05T04:04:51;41.40;;;35.67;;
23163;SDS011;31429;42.674;23.350;2023-06-05T04:05:52;51.27;;;44.60;;
23163;SDS011;31429;42.674;23.350;2023-06-05T04:06:53;57.30;;;50.97;;
23163;SDS011;31429;42.674;23.350;2023-06-05T04:07:55;36.93;;;33.07;;
23163;SDS011;31429;42.674;23.350;2023-06-05T04:08:56;166.97;;;135.50;;
23163;SDS011;31429;42.674;23.350;2023-06-05T04:09:57;185.30;;;157.40;;
23163;SDS011;31429;42.674;23.350;2023-06-05T04:10:57;167.43;;;137.60;;
23163;SDS011;31429;42.674;23.350;2023-06-05T04:11:58;178.83;;;143.90;;
23163;SDS011;31429;42.674;23.350;2023-06-05T04:13:00;139.70;;;117.33;;
23163;SDS011;31429;42.674;23.350;2023-06-05T04:14:01;93.57;;;79.07;;
23163;SDS011;31429;42.674;23.350;2023-06-05T04:15:02;113.13;;;94.27;;
23163;SDS011;31429;42.674;23.350;2023-06-05T04:16:03;99.43;;;83.57;;
23163;SDS011;31429;42.674;23.350;2023-06-05T04:17:04;71.43;;;59.57;;
23163;SDS011;31429;42.674;23.350;2023-06-05T04:18:05;68.30;;;58.23;;
23163;SDS011;31429;42.674;23.350;2023-06-05T04:19:05;54.07;;;46.63;;
23163;SDS011;31429;42.674;23.350;2023-06-05T04:20:07;59.20;;;51.13;;
23163;SDS011;31429;42.674;23.350;2023-06-05T04:21:14;43.43;;;38.70;;
23163;SDS011;31429;42.674;23.350;2023-06-05T04:22:14;42.10;;;37.60;;
23163;SDS011;31429;42.674;23.350;2023-06-05T04:23:15;31.10;;;27.77;;
23163;SDS011;31429;42.674;23.350;2023-06-05T04:24:16;27.07;;;21.80;;
23163;SDS011;31429;42.674;23.350;2023-06-05T04:25:16;24.83;;;22.40;;
23163;SDS011;31429;42.674;23.350;2023-06-05T04:26:17;23.67;;;20.53;;
23163;SDS011;31429;42.674;23.350;2023-06-05T04:27:19;28.63;;;25.50;;
23163;SDS011;31429;42.674;23.350;2023-06-05T04:28:21;38.33;;;29.83;;
23163;SDS011;31429;42.674;23.350;2023-06-05T04:29:22;36.97;;;31.90;;
23163;SDS011;31429;42.674;23.350;2023-06-05T04:30:23;28.37;;;25.50;;
23163;SDS011;31429;42.674;23.350;2023-06-05T04:31:25;40.43;;;32.33;;
23163;SDS011;31429;42.674;23.350;2023-06-05T04:32:25;32.57;;;29.17;;
23163;SDS011;31429;42.674;23.350;2023-06-05T04:33:26;32.43;;;28.93;;
23163;SDS011;31429;42.674;23.350;2023-06-05T04:34:27;25.77;;;22.40;;
23163;SDS011;31429;42.674;23.350;2023-06-05T04:35:27;41.10;;;33.27;;
23163;SDS011;31429;42.674;23.350;2023-06-05T04:36:29;44.93;;;40.10;;
23163;SDS011;31429;42.674;23.350;2023-06-05T04:37:29;59.23;;;50.60;;
23163;SDS011;31429;42.674;23.350;2023-06-05T04:38:30;59.10;;;52.50;;
23163;SDS011;31429;42.674;23.350;2023-06-05T04:39:31;58.87;;;52.03;;
23163;SDS011;31429;42.674;23.350;2023-06-05T04:40:32;116.47;;;97.63;;
23163;SDS011;31429;42.674;23.350;2023-06-05T04:41:33;110.20;;;90.30;;
23163;SDS011;31429;42.674;23.350;2023-06-05T04:42:36;109.47;;;90.97;;
23163;SDS011;31429;42.674;23.350;2023-06-05T04:43:38;133.73;;;112.13;;
23163;SDS011;31429;42.674;23.350;2023-06-05T04:44:39;92.20;;;72.27;;
23163;SDS011;31429;42.674;23.350;2023-06-05T04:45:40;51.87;;;39.53;;
23163;SDS011;31429;42.674;23.350;2023-06-05T04:46:41;83.37;;;68.40;;
23163;SDS011;31429;42.674;23.350;2023-06-05T04:47:43;55.73;;;46.37;;
23163;SDS011;31429;42.674;23.350;2023-06-05T04:48:44;68.23;;;51.53;;
23163;SDS011;31429;42.674;23.350;2023-06-05T04:49:45;38.10;;;29.43;;
23163;SDS011;31429;42.674;23.350;2023-06-05T04:50:47;24.53;;;20.63;;
23163;SDS011;31429;42.674;23.350;2023-06-05T04:51:48;40.17;;;32.23;;
23163;SDS011;31429;42.674;23.350;2023-06-05T04:52:50;51.50;;;45.77;;
23163;SDS011;31429;42.674;23.350;2023-06-05T04:53:51;38.00;;;28.13;;
23163;SDS011;31429;42.674;23.350;2023-06-05T04:54:52;25.90;;;21.80;;
23163;SDS011;31429;42.674;23.350;2023-06-05T04:55:53;24.60;;;20.43;;
23163;SDS011;31429;42.674;23.350;2023-06-05T04:56:55;29.67;;;23.20;;
23163;SDS011;31429;42.674;23.350;2023-06-05T04:57:56;28.63;;;25.57;;
23163;SDS011;31429;42.674;23.350;2023-06-05T04:59:02;30.67;;;24.63;;
23163;SDS011;31429;42.674;23.350;2023-06-05T05:00:03;27.93;;;23.93;;
23163;SDS011;31429;42.674;23.350;2023-06-05T05:01:04;33.47;;;22.00;;
23163;SDS011;31429;42.674;23.350;2023-06-05T05:02:06;26.20;;;23.33;;
23163;SDS011;31429;42.674;23.350;2023-06-05T05:03:07;36.60;;;28.33;;
23163;SDS011;31429;42.674;23.350;2023-06-05T05:04:08;27.77;;;24.70;;
23163;SDS011;31429;42.674;23.350;2023-06-05T05:05:09;29.43;;;26.37;;
23163;SDS011;31429;42.674;23.350;2023-06-05T05:06:14;30.30;;;26.87;;
23163;SDS011;31429;42.674;23.350;2023-06-05T05:07:15;31.33;;;26.40;;
23163;SDS011;31429;42.674;23.350;2023-06-05T05:08:16;28.80;;;24.97;;
23163;SDS011;31429;42.674;23.350;2023-06-05T05:09:17;26.57;;;23.70;;
23163;SDS011;31429;42.674;23.350;2023-06-05T05:10:18;32.67;;;24.97;;
23163;SDS011;31429;42.674;23.350;2023-06-05T05:11:18;29.73;;;26.53;;
23163;SDS011;31429;42.674;23.350;2023-06-05T05:12:19;22.10;;;19.90;;
23163;SDS011;31429;42.674;23.350;2023-06-05T05:13:20;30.97;;;22.50;;
23163;SDS011;31429;42.674;23.350;2023-06-05T05:14:23;24.87;;;20.30;;
23163;SDS011;31429;42.674;23.350;2023-06-05T05:15:24;29.23;;;21.10;;
23163;SDS011;31429;42.674;23.350;2023-06-05T05:16:25;25.63;;;22.80;;
23163;SDS011;31429;42.674;23.350;2023-06-05T05:17:25;30.37;;;22.67;;
23163;SDS011;31429;42.674;23.350;2023-06-05T05:18:26;27.00;;;23.20;;
23163;SDS011;31429;42.674;23.350;2023-06-05T05:19:28;24.77;;;22.17;;
23163;SDS011;31429;42.674;23.350;2023-06-05T05:20:29;26.93;;;22.63;;
23163;SDS011;31429;42.674;23.350;2023-06-05T05:21:32;30.07;;;22.20;;
23163;SDS011;31429;42.674;23.350;2023-06-05T05:22:32;26.17;;;22.43;;
23163;SDS011;31429;42.674;23.350;2023-06-05T05:23:33;30.73;;;23.73;;
23163;SDS011;31429;42.674;23.350;2023-06-05T05:24:34;27.27;;;22.30;;
23163;SDS011;31429;42.674;23.350;2023-06-05T05:25:35;30.43;;;21.70;;
23163;SDS011;31429;42.674;23.350;2023-06-05T05:26:37;26.07;;;21.70;;
23163;SDS011;31429;42.674;23.350;2023-06-05T05:27:39;23.70;;;20.47;;
23163;SDS011;31429;42.674;23.350;2023-06-05T05:28:40;22.30;;;19.90;;
23163;SDS011;31429;42.674;23.350;2023-06-05T05:29:42;30.83;;;21.20;;
23163;SDS011;31429;42.674;23.350;2023-06-05T05:30:43;25.50;;;19.97;;
23163;SDS011;31429;42.674;23.350;2023-06-05T05:31:43;26.20;;;22.07;;
23163;SDS011;31429;42.674;23.350;2023-06-05T05:32:44;19.57;;;16.80;;
23163;SDS011;31429;42.674;23.350;2023-06-05T05:33:45;17.70;;;15.77;;
23163;SDS011;31429;42.674;23.350;2023-06-05T05:34:46;19.93;;;16.30;;
23163;SDS011;31429;42.674;23.350;2023-06-05T05:35:47;19.13;;;14.57;;
23163;SDS011;31429;42.674;23.350;2023-06-05T05:36:48;22.63;;;20.33;;
23163;SDS011;31429;42.674;23.350;2023-06-05T05:37:49;25.13;;;21.43;;
23163;SDS011;31429;42.674;23.350;2023-06-05T05:38:50;26.40;;;22.33;;
23163;SDS011;31429;42.674;23.350;2023-06-05T05:39:50;26.20;;;22.07;;
23163;SDS011;31429;42.674;23.350;2023-06-05T05:40:51;28.17;;;21.77;;
23163;SDS011;31429;42.674;23.350;2023-06-05T05:41:51;22.90;;;20.70;;
23163;SDS011;31429;42.674;23.350;2023-06-05T05:42:52;23.37;;;20.23;;
23163;SDS011;31429;42.674;23.350;2023-06-05T05:43:53;26.53;;;20.43;;
23163;SDS011;31429;42.674;23.350;2023-06-05T05:44:55;24.63;;;19.47;;
23163;SDS011;31429;42.674;23.350;2023-06-05T05:45:55;22.07;;;19.40;;
23163;SDS011;31429;42.674;23.350;2023-06-05T05:46:56;26.90;;;21.23;;
23163;SDS011;31429;42.674;23.350;2023-06-05T05:47:57;23.77;;;20.43;;
23163;SDS011;31429;42.674;23.350;2023-06-05T05:48:57;22.00;;;19.63;;
23163;SDS011;31429;42.674;23.350;2023-06-05T05:49:58;27.83;;;20.60;;
23163;SDS011;31429;42.674;23.350;2023-06-05T05:50:58;24.73;;;21.13;;
23163;SDS011;31429;42.674;23.350;2023-06-05T05:51:59;23.10;;;20.80;;
23163;SDS011;31429;42.674;23.350;2023-06-05T05:53:00;23.90;;;21.27;;
23163;SDS011;31429;42.674;23.350;2023-06-05T05:54:01;23.27;;;20.70;;
23163;SDS011;31429;42.674;23.350;2023-06-05T05:55:01;23.43;;;21.03;;